WetterOnline ( https://www.wetteronline.at )

Wetter aktuell Mühldorf

Aktuelles Wetter: Mühldorf am Inn (410m)

6-stündlich | Neueste Meldungen
Ortszeit Temperatur Wetter
Mo, 25.05. 2:00 11.9° C leichter Regen
So, 24.05. 20:00 15.8° C bewölkt
So, 24.05. 14:00 14.8° C bewölkt
So, 24.05. 8:00 9.6° C bewölkt
So, 24.05. 2:00 8.8° C bewölkt
Sa, 23.05. 20:00 10.0° C leichter Regen
Sa, 23.05. 14:00 21.5° C wolkig
Sa, 23.05. 8:00 18.1° C bewölkt
Ortszeit Temperatur Wetter
Mo, 25.05. 4:00 10.3° C bedeckt
Mo, 25.05. 3:50 10.3° C bedeckt
Mo, 25.05. 3:40 10.3° C bedeckt
Mo, 25.05. 3:30 10.4° C bedeckt
Mo, 25.05. 3:20 10.4° C bedeckt
Mo, 25.05. 3:10 10.4° C leichter Regen
Mo, 25.05. 3:00 10.4° C bewölkt
Mo, 25.05. 2:30 10.5° C bedeckt
Mo, 25.05. 2:00 11.9° C leichter Regen
Mo, 25.05. 1:30 10.9° C Sprühregen
Mo, 25.05. 1:00 10.9° C leichter Regen
Ortszeit Relative Feuchte Sichtweite
Mo, 25.05. 2:00 73% 26 km
So, 24.05. 20:00 47% >70 km
So, 24.05. 14:00 51% 50 km
So, 24.05. 8:00 84% 45 km
So, 24.05. 2:00 90% 40 km
Sa, 23.05. 20:00 89% 30 km
Sa, 23.05. 14:00 63% 50 km
Sa, 23.05. 8:00 65% 50 km
Ortszeit Relative Feuchte Sichtweite
Mo, 25.05. 4:00 89% 40 km
Mo, 25.05. 3:50 89% -
Mo, 25.05. 3:40 90% -
Mo, 25.05. 3:30 90% 45 km
Mo, 25.05. 3:20 90% -
Mo, 25.05. 3:10 90% -
Mo, 25.05. 3:00 90% 40 km
Mo, 25.05. 2:30 87% 45 km
Mo, 25.05. 2:00 73% 26 km
Mo, 25.05. 1:30 84% 50 km
Mo, 25.05. 1:00 80% 30 km
Ortszeit Niederschlagsmenge Niederschlagsart
Mo, 25.05. 2:00 0.2 l/m2 in 6 Std. Regen
So, 24.05. 20:00 0.1 l/m2 in 12 Std. Regen
So, 24.05. 14:00 0.1 l/m2 in 6 Std. Regen
So, 24.05. 8:00 0.1 l/m2 in 12 Std. Regen
So, 24.05. 2:00 0.1 l/m2 in 6 Std. Regen
Sa, 23.05. 20:00 2 l/m2 in 12 Std. Regen
Sa, 23.05. 14:00 0.2 l/m2 in 6 Std. Regen
Sa, 23.05. 8:00 0.1 l/m2 in 12 Std. Regen
Ortszeit Niederschlagsmenge Niederschlagsart
Mo, 25.05. 4:00 0.1 l/m2 in 1 Std. Regen
Mo, 25.05. 3:50 keine Meldung -
Mo, 25.05. 3:40 keine Meldung -
Mo, 25.05. 3:30 0.1 l/m2 in 1 Std. Schneeregen
Mo, 25.05. 3:20 keine Meldung -
Mo, 25.05. 3:10 keine Meldung -
Mo, 25.05. 3:00 0.6 l/m2 in 1 Std. Regen
Mo, 25.05. 2:30 0.6 l/m2 in 1 Std. Schneeregen
Mo, 25.05. 2:00 0.1 l/m2 in 1 Std. Regen
Mo, 25.05. 1:30 0.1 l/m2 in 1 Std. -
Mo, 25.05. 1:00 0.1 l/m2 in 1 Std. Regen
Ortszeit Stärke Spitze Richtung
km/h Bft. km/h Grad Sektor
Mo, 25.05. 2:00 14 3 36 320° NW
So, 24.05. 20:00 15 3 48 290° W
So, 24.05. 14:00 20 4 48 290° W
So, 24.05. 8:00 11 2 19 270° W
So, 24.05. 2:00 7 2 28 260° W
Sa, 23.05. 20:00 18 3 72 270° W
Sa, 23.05. 14:00 6 1 20 310° NW
Sa, 23.05. 8:00 0 0 11 - -
Ortszeit Stärke Spitze Richtung
km/h Bft. km/h Grad Sektor
Mo, 25.05. 4:00 11 2 14 270° W
Mo, 25.05. 3:50 11 2 - 270° W
Mo, 25.05. 3:40 9 2 - 270° W
Mo, 25.05. 3:30 9 2 11 280° W
Mo, 25.05. 3:20 9 2 - 280° W
Mo, 25.05. 3:10 7 2 - 280° W
Mo, 25.05. 3:00 9 2 28 280° W
Mo, 25.05. 2:30 14 3 29 290° W
Mo, 25.05. 2:00 14 3 22 320° NW
Mo, 25.05. 1:30 7 2 14 300° NW
Mo, 25.05. 1:00 9 2 13 260° W
Ortszeit Untergrenze Bedeckung Gattung
total tief tief mittel hoch
Mo, 25.05. 2:00 1500 m 7/8 7/8 - - -
So, 24.05. 20:00 1800 m 8/8 6/8 - - -
So, 24.05. 14:00 1500 m 7/8 8/8 - - -
So, 24.05. 8:00 1500 m 8/8 7/8 - - -
So, 24.05. 2:00 480 m 8/8 6/8 - - -
Sa, 23.05. 20:00 1320 m 7/8 7/8 - - -
Sa, 23.05. 14:00 2700 m 8/8 3/8 - - -
Sa, 23.05. 8:00 2700 m 8/8 6/8 - - -
Ortszeit Bedeckungsgrad in Achtel und Wolkenuntergrenze
Mo, 25.05. 4:00 4(1170m) 8(2700m) 8(3300m)
Mo, 25.05. 3:50 4(1170m) 8(2700m) 8(3300m)
Mo, 25.05. 3:40 3(1050m) 8(2100m) 8(3300m)
Mo, 25.05. 3:30 5(1230m) 8(2100m) 8(2100m)
Mo, 25.05. 3:20 5(1230m) 8(2100m)
Mo, 25.05. 3:10 7(1230m) 8(1500m) 8(2400m)
Mo, 25.05. 3:00 2(1380m) 7(2100m) 8(3300m)
Mo, 25.05. 2:30 3(1200m) 7(1500m) 8(2100m)
Mo, 25.05. 2:00 3(1500m) 7(2100m) 7(2700m)
Mo, 25.05. 1:30 1(1440m) 7(2100m) 8(2400m)
Mo, 25.05. 1:00 4(1410m) 5(1500m) 8(2400m)
Ortszeit Luftdruck NN (hPa) Tendenz (hPa in 3 Std.)
Mo, 25.05. 2:00 1031 + 0,1
So, 24.05. 20:00 1029 + 0,1
So, 24.05. 14:00 1029 - 0,9
So, 24.05. 8:00 1031 + 0,3
So, 24.05. 2:00 1031 + 1,2
Sa, 23.05. 20:00 1028 + 4,5
Sa, 23.05. 14:00 1018 - 2,4
Sa, 23.05. 8:00 1021 0,0
Ortszeit Luftdruck NN (hPa) Tendenz (hPa in 3 Std.)
Mo, 25.05. 4:00 1030 - 0,3
Mo, 25.05. 3:50 1030 keine Meldung
Mo, 25.05. 3:40 1030 keine Meldung
Mo, 25.05. 3:30 1031 - 0,2
Mo, 25.05. 3:20 1031 keine Meldung
Mo, 25.05. 3:10 1031 keine Meldung
Mo, 25.05. 3:00 1031 - 0,1
Mo, 25.05. 2:30 1031 - 0,1
Mo, 25.05. 2:00 1031 + 0,1
Mo, 25.05. 1:30 1031 + 0,1
Mo, 25.05. 1:00 1031 + 0,2
Ortszeit Schneehöhe (cm)
Mo, 25.05. 2:00 -
So, 24.05. 20:00 -
So, 24.05. 14:00 -
So, 24.05. 8:00 -
So, 24.05. 2:00 -
Sa, 23.05. 20:00 -
Sa, 23.05. 14:00 -
Sa, 23.05. 8:00 -
Ortszeit Schneehöhe (cm)
Mo, 25.05. 4:00 -
Mo, 25.05. 3:50 -
Mo, 25.05. 3:40 -
Mo, 25.05. 3:30 -
Mo, 25.05. 3:20 -
Mo, 25.05. 3:10 -
Mo, 25.05. 3:00 -
Mo, 25.05. 2:30 -
Mo, 25.05. 2:00 -
Mo, 25.05. 1:30 -
Mo, 25.05. 1:00 -
Link zu dieser Seite / Seite empfehlen

Das Wetter in ...